sensor_id;sensor_type;location;lat;lon;timestamp;pressure;altitude;pressure_sealevel;temperature;humidity
13434;BME280;6789;47.678;9.158;2022-10-19T00:14:57;97628.81;;;12.84;100.00
13434;BME280;6789;47.678;9.158;2022-10-19T00:20:12;97634.09;;;12.84;100.00
13434;BME280;6789;47.678;9.158;2022-10-19T00:25:28;97623.81;;;12.77;100.00
13434;BME280;6789;47.678;9.158;2022-10-19T00:30:40;97628.94;;;12.72;100.00
13434;BME280;6789;47.678;9.158;2022-10-19T00:35:32;97622.66;;;12.73;100.00
13434;BME280;6789;47.678;9.158;2022-10-19T00:40:39;97614.22;;;12.64;100.00
13434;BME280;6789;47.678;9.158;2022-10-19T00:46:53;97603.69;;;12.64;100.00
13434;BME280;6789;47.678;9.158;2022-10-19T00:51:53;97600.00;;;12.65;100.00
13434;BME280;6789;47.678;9.158;2022-10-19T00:56:49;97596.56;;;12.71;100.00
13434;BME280;6789;47.678;9.158;2022-10-19T01:01:44;97596.91;;;12.75;100.00
13434;BME280;6789;47.678;9.158;2022-10-19T01:06:37;97579.66;;;12.79;100.00
13434;BME280;6789;47.678;9.158;2022-10-19T01:28:38;97547.16;;;12.91;100.00
13434;BME280;6789;47.678;9.158;2022-10-19T01:34:13;97532.44;;;12.83;100.00
13434;BME280;6789;47.678;9.158;2022-10-19T01:39:39;97529.22;;;12.81;100.00
13434;BME280;6789;47.678;9.158;2022-10-19T01:50:00;97531.78;;;12.70;100.00
13434;BME280;6789;47.678;9.158;2022-10-19T01:54:57;97529.78;;;12.66;100.00
13434;BME280;6789;47.678;9.158;2022-10-19T01:59:51;97529.19;;;12.64;100.00
13434;BME280;6789;47.678;9.158;2022-10-19T02:04:48;97517.34;;;12.55;100.00
13434;BME280;6789;47.678;9.158;2022-10-19T02:09:41;97517.78;;;12.52;100.00
13434;BME280;6789;47.678;9.158;2022-10-19T02:14:40;97516.31;;;12.56;100.00
13434;BME280;6789;47.678;9.158;2022-10-19T02:19:52;97514.53;;;12.50;100.00
13434;BME280;6789;47.678;9.158;2022-10-19T02:24:44;97511.75;;;12.45;100.00
13434;BME280;6789;47.678;9.158;2022-10-19T02:29:37;97512.78;;;12.44;100.00
13434;BME280;6789;47.678;9.158;2022-10-19T02:34:42;97505.47;;;12.46;100.00
13434;BME280;6789;47.678;9.158;2022-10-19T02:39:34;97519.09;;;12.43;100.00
13434;BME280;6789;47.678;9.158;2022-10-19T02:45:30;97523.78;;;12.34;100.00
13434;BME280;6789;47.678;9.158;2022-10-19T02:50:07;97525.72;;;12.21;100.00
13434;BME280;6789;47.678;9.158;2022-10-19T02:55:00;97517.94;;;12.08;100.00
13434;BME280;6789;47.678;9.158;2022-10-19T03:00:16;97509.56;;;11.93;100.00
13434;BME280;6789;47.678;9.158;2022-10-19T03:05:08;97515.69;;;11.87;100.00
13434;BME280;6789;47.678;9.158;2022-10-19T03:10:00;97520.34;;;11.85;100.00
13434;BME280;6789;47.678;9.158;2022-10-19T03:14:52;97509.56;;;11.93;100.00
13434;BME280;6789;47.678;9.158;2022-10-19T03:19:44;97509.91;;;12.03;100.00
13434;BME280;6789;47.678;9.158;2022-10-19T03:24:35;97504.19;;;12.06;100.00
13434;BME280;6789;47.678;9.158;2022-10-19T03:29:27;97502.16;;;12.08;100.00
13434;BME280;6789;47.678;9.158;2022-10-19T03:34:33;97504.75;;;12.14;100.00
13434;BME280;6789;47.678;9.158;2022-10-19T03:39:25;97497.41;;;12.23;100.00
13434;BME280;6789;47.678;9.158;2022-10-19T03:44:16;97494.31;;;12.26;100.00
13434;BME280;6789;47.678;9.158;2022-10-19T03:49:08;97503.78;;;12.33;100.00
13434;BME280;6789;47.678;9.158;2022-10-19T03:54:05;97498.69;;;12.38;100.00
13434;BME280;6789;47.678;9.158;2022-10-19T03:59:00;97497.00;;;12.44;100.00
13434;BME280;6789;47.678;9.158;2022-10-19T04:03:57;97493.16;;;12.46;100.00
13434;BME280;6789;47.678;9.158;2022-10-19T04:09:06;97483.56;;;12.52;100.00
13434;BME280;6789;47.678;9.158;2022-10-19T04:14:15;97470.00;;;12.73;100.00
13434;BME280;6789;47.678;9.158;2022-10-19T04:19:21;97456.38;;;12.58;100.00
13434;BME280;6789;47.678;9.158;2022-10-19T04:24:28;97451.13;;;12.58;100.00
13434;BME280;6789;47.678;9.158;2022-10-19T04:29:35;97445.13;;;12.51;100.00
13434;BME280;6789;47.678;9.158;2022-10-19T04:34:41;97449.22;;;12.47;100.00
13434;BME280;6789;47.678;9.158;2022-10-19T04:39:47;97452.50;;;12.42;100.00
13434;BME280;6789;47.678;9.158;2022-10-19T04:44:53;97449.50;;;12.39;100.00
13434;BME280;6789;47.678;9.158;2022-10-19T04:50:01;97444.97;;;12.46;100.00
13434;BME280;6789;47.678;9.158;2022-10-19T04:55:07;97446.13;;;12.32;100.00
13434;BME280;6789;47.678;9.158;2022-10-19T05:00:14;97454.25;;;12.30;100.00
13434;BME280;6789;47.678;9.158;2022-10-19T05:05:20;97451.75;;;12.35;100.00
13434;BME280;6789;47.678;9.158;2022-10-19T05:10:26;97441.59;;;12.39;100.00
13434;BME280;6789;47.678;9.158;2022-10-19T05:15:32;97446.00;;;12.45;100.00
13434;BME280;6789;47.678;9.158;2022-10-19T05:20:42;97447.00;;;12.44;100.00
13434;BME280;6789;47.678;9.158;2022-10-19T05:25:48;97429.19;;;12.46;100.00
13434;BME280;6789;47.678;9.158;2022-10-19T05:30:54;97426.13;;;12.49;100.00
13434;BME280;6789;47.678;9.158;2022-10-19T05:41:30;97430.06;;;12.58;100.00
13434;BME280;6789;47.678;9.158;2022-10-19T05:46:44;97436.16;;;12.58;100.00
13434;BME280;6789;47.678;9.158;2022-10-19T05:52:08;97447.09;;;12.55;100.00
13434;BME280;6789;47.678;9.158;2022-10-19T05:57:19;97442.63;;;12.56;100.00
13434;BME280;6789;47.678;9.158;2022-10-19T06:02:25;97450.75;;;12.54;100.00
13434;BME280;6789;47.678;9.158;2022-10-19T06:07:42;97446.38;;;12.48;100.00
13434;BME280;6789;47.678;9.158;2022-10-19T06:12:48;97447.25;;;12.42;100.00
13434;BME280;6789;47.678;9.158;2022-10-19T06:18:12;97463.47;;;12.39;100.00
13434;BME280;6789;47.678;9.158;2022-10-19T06:23:18;97469.22;;;12.30;100.00
13434;BME280;6789;47.678;9.158;2022-10-19T06:28:25;97468.63;;;12.28;100.00
13434;BME280;6789;47.678;9.158;2022-10-19T06:33:42;97491.44;;;12.34;100.00
13434;BME280;6789;47.678;9.158;2022-10-19T06:38:58;97501.34;;;12.32;100.00
13434;BME280;6789;47.678;9.158;2022-10-19T06:44:07;97507.38;;;12.39;100.00
13434;BME280;6789;47.678;9.158;2022-10-19T06:49:39;97507.47;;;12.50;100.00
13434;BME280;6789;47.678;9.158;2022-10-19T06:54:47;97516.91;;;12.58;100.00
13434;BME280;6789;47.678;9.158;2022-10-19T07:00:05;97509.47;;;12.55;100.00
13434;BME280;6789;47.678;9.158;2022-10-19T07:05:22;97516.63;;;12.66;100.00
13434;BME280;6789;47.678;9.158;2022-10-19T07:10:53;97513.41;;;12.81;100.00
13434;BME280;6789;47.678;9.158;2022-10-19T07:16:22;97507.97;;;13.01;100.00
13434;BME280;6789;47.678;9.158;2022-10-19T07:21:58;97507.91;;;13.07;100.00
13434;BME280;6789;47.678;9.158;2022-10-19T07:27:42;97502.59;;;13.25;100.00
13434;BME280;6789;47.678;9.158;2022-10-19T07:32:48;97505.22;;;13.43;100.00
13434;BME280;6789;47.678;9.158;2022-10-19T07:37:56;97506.66;;;13.57;100.00
13434;BME280;6789;47.678;9.158;2022-10-19T07:43:34;97511.56;;;13.83;100.00
13434;BME280;6789;47.678;9.158;2022-10-19T07:49:12;97524.59;;;14.07;100.00
13434;BME280;6789;47.678;9.158;2022-10-19T07:55:36;97532.91;;;14.33;100.00
13434;BME280;6789;47.678;9.158;2022-10-19T08:33:17;97540.38;;;15.05;100.00
13434;BME280;6789;47.678;9.158;2022-10-19T08:49:54;97533.47;;;15.27;100.00
13434;BME280;6789;47.678;9.158;2022-10-19T08:56:32;97540.66;;;15.43;100.00
13434;BME280;6789;47.678;9.158;2022-10-19T09:08:53;97536.91;;;15.67;100.00
13434;BME280;6789;47.678;9.158;2022-10-19T09:35:20;97524.91;;;16.85;98.43
13434;BME280;6789;47.678;9.158;2022-10-19T09:41:19;97523.19;;;16.58;98.03
13434;BME280;6789;47.678;9.158;2022-10-19T09:47:42;97507.69;;;17.25;95.93
13434;BME280;6789;47.678;9.158;2022-10-19T09:53:32;97508.03;;;17.50;93.59
13434;BME280;6789;47.678;9.158;2022-10-19T10:48:40;97475.13;;;18.04;89.88
13434;BME280;6789;47.678;9.158;2022-10-19T11:05:32;97454.34;;;18.22;88.58
13434;BME280;6789;47.678;9.158;2022-10-19T11:10:49;97437.47;;;18.38;88.66
13434;BME280;6789;47.678;9.158;2022-10-19T11:17:50;97435.50;;;18.60;86.77
13434;BME280;6789;47.678;9.158;2022-10-19T12:04:17;97375.16;;;18.61;87.32
13434;BME280;6789;47.678;9.158;2022-10-19T12:16:09;97363.09;;;18.94;87.03
13434;BME280;6789;47.678;9.158;2022-10-19T12:21:40;97356.13;;;18.88;87.22
13434;BME280;6789;47.678;9.158;2022-10-19T12:27:14;97344.44;;;18.89;87.45
13434;BME280;6789;47.678;9.158;2022-10-19T12:33:19;97332.31;;;19.08;87.00
13434;BME280;6789;47.678;9.158;2022-10-19T12:51:51;97307.28;;;19.04;86.89
13434;BME280;6789;47.678;9.158;2022-10-19T14:20:38;97213.91;;;18.81;83.68
13434;BME280;6789;47.678;9.158;2022-10-19T14:26:40;97215.25;;;18.83;83.64
13434;BME280;6789;47.678;9.158;2022-10-19T14:51:06;97203.56;;;18.74;84.57
13434;BME280;6789;47.678;9.158;2022-10-19T15:42:50;97179.53;;;18.25;86.10
13434;BME280;6789;47.678;9.158;2022-10-19T16:10:16;97167.22;;;17.53;90.30
13434;BME280;6789;47.678;9.158;2022-10-19T16:29:45;97182.88;;;16.87;93.79
13434;BME280;6789;47.678;9.158;2022-10-19T16:36:04;97174.28;;;16.75;94.25
13434;BME280;6789;47.678;9.158;2022-10-19T16:41:36;97173.75;;;16.78;94.33
13434;BME280;6789;47.678;9.158;2022-10-19T16:52:37;97195.38;;;16.39;96.50
13434;BME280;6789;47.678;9.158;2022-10-19T17:09:52;97218.38;;;16.17;97.35
13434;BME280;6789;47.678;9.158;2022-10-19T17:15:20;97216.94;;;16.09;97.57
13434;BME280;6789;47.678;9.158;2022-10-19T17:21:07;97213.16;;;16.00;98.06
13434;BME280;6789;47.678;9.158;2022-10-19T17:27:03;97216.63;;;15.84;98.64
13434;BME280;6789;47.678;9.158;2022-10-19T17:33:09;97228.13;;;15.73;100.00
13434;BME280;6789;47.678;9.158;2022-10-19T18:03:20;97225.59;;;15.13;100.00
13434;BME280;6789;47.678;9.158;2022-10-19T18:14:52;97214.34;;;14.73;100.00
13434;BME280;6789;47.678;9.158;2022-10-19T18:20:52;97207.47;;;14.56;100.00
13434;BME280;6789;47.678;9.158;2022-10-19T18:40:11;97190.88;;;14.05;100.00
13434;BME280;6789;47.678;9.158;2022-10-19T18:56:36;97197.25;;;13.81;100.00
13434;BME280;6789;47.678;9.158;2022-10-19T19:02:38;97182.34;;;13.75;100.00
13434;BME280;6789;47.678;9.158;2022-10-19T19:08:36;97168.72;;;13.78;100.00
13434;BME280;6789;47.678;9.158;2022-10-19T19:14:36;97192.31;;;13.84;100.00
13434;BME280;6789;47.678;9.158;2022-10-19T19:33:21;97191.88;;;13.64;100.00
13434;BME280;6789;47.678;9.158;2022-10-19T19:52:16;97161.13;;;13.42;100.00
13434;BME280;6789;47.678;9.158;2022-10-19T19:58:10;97152.97;;;13.32;100.00
13434;BME280;6789;47.678;9.158;2022-10-19T20:04:09;97139.50;;;13.17;100.00
13434;BME280;6789;47.678;9.158;2022-10-19T20:09:20;97139.16;;;13.14;100.00
13434;BME280;6789;47.678;9.158;2022-10-19T20:14:37;97141.44;;;13.10;100.00
13434;BME280;6789;47.678;9.158;2022-10-19T20:20:16;97137.53;;;13.01;100.00
13434;BME280;6789;47.678;9.158;2022-10-19T20:25:59;97137.50;;;12.90;100.00
13434;BME280;6789;47.678;9.158;2022-10-19T20:31:25;97134.97;;;12.83;100.00
13434;BME280;6789;47.678;9.158;2022-10-19T20:36:42;97138.19;;;12.85;100.00
13434;BME280;6789;47.678;9.158;2022-10-19T20:42:15;97144.81;;;12.77;100.00
13434;BME280;6789;47.678;9.158;2022-10-19T20:47:58;97132.22;;;12.79;100.00
13434;BME280;6789;47.678;9.158;2022-10-19T20:53:55;97136.13;;;12.87;100.00
13434;BME280;6789;47.678;9.158;2022-10-19T21:00:05;97122.66;;;12.95;100.00
13434;BME280;6789;47.678;9.158;2022-10-19T21:06:05;97121.84;;;13.06;100.00
13434;BME280;6789;47.678;9.158;2022-10-19T21:12:06;97126.88;;;13.19;100.00
13434;BME280;6789;47.678;9.158;2022-10-19T21:18:14;97135.56;;;13.43;100.00
13434;BME280;6789;47.678;9.158;2022-10-19T21:23:59;97141.78;;;13.64;100.00
13434;BME280;6789;47.678;9.158;2022-10-19T21:30:00;97144.19;;;13.77;100.00
13434;BME280;6789;47.678;9.158;2022-10-19T21:35:34;97135.47;;;13.77;100.00
13434;BME280;6789;47.678;9.158;2022-10-19T21:41:20;97124.34;;;13.75;100.00
13434;BME280;6789;47.678;9.158;2022-10-19T21:46:50;97120.78;;;13.81;100.00
13434;BME280;6789;47.678;9.158;2022-10-19T21:53:17;97124.09;;;13.88;100.00
13434;BME280;6789;47.678;9.158;2022-10-19T22:04:00;97114.53;;;13.98;100.00
13434;BME280;6789;47.678;9.158;2022-10-19T22:10:04;97108.66;;;14.08;100.00
13434;BME280;6789;47.678;9.158;2022-10-19T22:16:07;97098.09;;;14.08;100.00
13434;BME280;6789;47.678;9.158;2022-10-19T22:21:50;97096.50;;;14.07;100.00
13434;BME280;6789;47.678;9.158;2022-10-19T22:26:59;97098.72;;;14.10;100.00
13434;BME280;6789;47.678;9.158;2022-10-19T22:32:42;97094.22;;;14.10;100.00
13434;BME280;6789;47.678;9.158;2022-10-19T22:38:21;97079.38;;;14.09;100.00
13434;BME280;6789;47.678;9.158;2022-10-19T22:49:13;97086.06;;;14.12;100.00
13434;BME280;6789;47.678;9.158;2022-10-19T22:55:09;97077.19;;;14.18;100.00
13434;BME280;6789;47.678;9.158;2022-10-19T23:01:06;97074.47;;;14.13;100.00
13434;BME280;6789;47.678;9.158;2022-10-19T23:05:59;97059.56;;;14.18;100.00
13434;BME280;6789;47.678;9.158;2022-10-19T23:11:11;97053.56;;;14.23;100.00
13434;BME280;6789;47.678;9.158;2022-10-19T23:21:24;97052.44;;;14.19;100.00
13434;BME280;6789;47.678;9.158;2022-10-19T23:52:42;97043.00;;;14.23;100.00
